Time;durP1;ratioP1;P1;durP2;ratioP2;P2;SDS_P1;SDS_P2;PMS_P1;PMS_P2;Temp;Humidity;BMP_temperature;BMP_pressure;BME280_temperature;BME280_humidity;BME280_pressure;Samples;Min_cycle;Max_cycle;Signal;HPM_P1;HPM_P2
2022/10/07 00:00:32;;;;;;;17.55;2.40;;;11.60;72.00;;;;;;4104271;28;20066;-84
2022/10/07 00:02:51;;;;;;;25.10;2.05;;;11.50;72.00;;;;;;4109223;28;20066;-84
2022/10/07 00:05:10;;;;;;;16.00;2.15;;;11.50;71.90;;;;;;4100205;28;20101;-83
2022/10/07 00:07:29;;;;;;;15.02;2.08;;;11.50;71.90;;;;;;4108592;28;20040;-83
2022/10/07 00:09:48;;;;;;;17.95;2.13;;;11.60;72.00;;;;;;4111287;28;20081;-84
2022/10/07 00:12:07;;;;;;;18.38;2.10;;;11.50;72.10;;;;;;4115440;28;20101;-83
2022/10/07 00:14:26;;;;;;;14.65;2.45;;;11.50;71.90;;;;;;4112811;28;20097;-85
2022/10/07 00:16:46;;;;;;;16.55;2.33;;;11.50;72.30;;;;;;4111457;28;20136;-84
2022/10/07 00:19:09;;;;;;;13.82;2.22;;;11.50;72.10;;;;;;4108611;28;20054;-84
2022/10/07 00:21:31;;;;;;;18.25;2.28;;;11.50;72.20;;;;;;4109883;28;20939;-84
2022/10/07 00:23:51;;;;;;;20.67;2.30;;;11.50;72.10;;;;;;4113523;28;20046;-84
2022/10/07 00:26:14;;;;;;;21.88;2.80;;;11.50;72.00;;;;;;4109734;28;20153;-84
2022/10/07 00:28:34;;;;;;;14.95;2.53;;;11.50;72.00;;;;;;4112142;28;20041;-84
2022/10/07 00:30:58;;;;;;;16.60;2.35;;;11.50;72.10;;;;;;4108366;28;20046;-84
2022/10/07 00:33:17;;;;;;;;;;;11.40;72.00;;;;;;4109550;28;20112;-85
2022/10/07 00:35:36;;;;;;;15.63;1.77;;;11.40;72.40;;;;;;4107966;28;19921;-83
2022/10/07 00:37:55;;;;;;;13.23;1.75;;;11.40;71.60;;;;;;4107521;28;20034;-83
2022/10/07 00:40:14;;;;;;;16.98;2.30;;;11.40;71.80;;;;;;4111713;28;20518;-85
2022/10/07 00:42:34;;;;;;;13.80;2.42;;;11.40;71.80;;;;;;4104894;28;20451;-83
2022/10/07 00:44:53;;;;;;;10.23;1.80;;;11.40;71.90;;;;;;4110748;28;20042;-83
2022/10/07 00:47:32;;;;;;;12.40;2.08;;;11.40;71.90;;;;;;4108233;28;20107;-83
2022/10/07 00:49:51;;;;;;;12.48;1.75;;;11.40;72.00;;;;;;4107900;28;20411;-83
2022/10/07 00:52:12;;;;;;;20.33;2.30;;;11.40;71.80;;;;;;4123455;28;20052;-83
2022/10/07 00:54:32;;;;;;;14.07;2.10;;;11.40;71.80;;;;;;4106539;28;20056;-84
2022/10/07 00:56:51;;;;;;;16.80;2.30;;;11.40;71.90;;;;;;4103814;28;20038;-84
2022/10/07 00:59:13;;;;;;;12.85;2.00;;;11.40;71.90;;;;;;4108515;28;20125;-85
2022/10/07 01:01:32;;;;;;;23.58;2.05;;;11.30;71.80;;;;;;4109441;28;20370;-84
2022/10/07 01:03:53;;;;;;;10.65;1.75;;;11.30;71.80;;;;;;4108274;28;20073;-83
2022/10/07 01:06:12;;;;;;;15.27;1.95;;;11.30;71.80;;;;;;4109243;28;20037;-84
2022/10/07 01:08:32;;;;;;;19.80;1.88;;;11.30;71.80;;;;;;4107866;28;20042;-85
2022/10/07 01:11:12;;;;;;;15.52;1.88;;;11.20;71.80;;;;;;4108282;28;20414;-84
2022/10/07 01:13:38;;;;;;;16.67;2.15;;;11.20;71.80;;;;;;4109402;28;20158;-84
2022/10/07 01:15:58;;;;;;;22.83;2.85;;;11.20;71.80;;;;;;4107993;28;20111;-84
2022/10/07 01:18:41;;;;;;;13.60;2.00;;;11.20;71.80;;;;;;4104840;28;20098;-84
2022/10/07 01:21:10;;;;;;;18.33;2.08;;;11.10;71.80;;;;;;4108286;28;20049;-85
2022/10/07 01:23:57;;;;;;;17.13;1.70;;;11.20;71.70;;;;;;4103688;28;20034;-85
2022/10/07 01:26:40;;;;;;;18.20;2.90;;;11.10;71.80;;;;;;4110628;28;20090;-85
2022/10/07 01:29:03;;;;;;;13.73;2.38;;;11.10;71.80;;;;;;4109743;28;20077;-84
2022/10/07 01:31:31;;;;;;;13.50;1.75;;;11.10;71.60;;;;;;4108588;28;20033;-85
2022/10/07 01:33:52;;;;;;;17.60;1.77;;;11.00;71.60;;;;;;4103559;28;20085;-86
2022/10/07 01:36:16;;;;;;;16.27;1.60;;;11.00;71.70;;;;;;4108924;28;20042;-85
2022/10/07 01:38:40;;;;;;;17.70;2.53;;;11.00;71.70;;;;;;4106992;28;20042;-85
2022/10/07 01:41:14;;;;;;;16.20;2.15;;;10.90;71.90;;;;;;4108886;28;20050;-83
2022/10/07 01:43:35;;;;;;;15.13;1.87;;;10.90;72.00;;;;;;4122628;28;20340;-84
2022/10/07 01:45:54;;;;;;;17.23;1.67;;;10.90;72.00;;;;;;4100986;28;20119;-84
2022/10/07 01:48:14;;;;;;;24.02;2.35;;;10.90;72.10;;;;;;4105312;28;20034;-83
2022/10/07 01:50:34;;;;;;;17.42;2.33;;;10.90;72.10;;;;;;4107248;28;20041;-83
2022/10/07 01:53:02;;;;;;;19.88;2.15;;;10.90;72.20;;;;;;4104704;28;20046;-83
2022/10/07 01:55:36;;;;;;;24.92;2.47;;;10.80;72.30;;;;;;4107160;28;20546;-82
2022/10/07 01:58:05;;;;;;;13.60;1.70;;;10.80;72.30;;;;;;4110487;28;20034;-82
2022/10/07 02:00:24;;;;;;;21.05;1.73;;;10.80;72.30;;;;;;4106802;28;20286;-82
2022/10/07 02:03:06;;;;;;;16.98;2.20;;;10.80;72.30;;;;;;4110418;28;20036;-83
2022/10/07 02:05:40;;;;;;;14.68;1.80;;;10.80;72.50;;;;;;4107673;28;20726;-83
2022/10/07 02:08:14;;;;;;;18.75;2.03;;;10.80;72.50;;;;;;4107571;28;20042;-83
2022/10/07 02:10:52;;;;;;;17.55;1.63;;;10.70;72.20;;;;;;4103146;28;20134;-83
2022/10/07 02:13:22;;;;;;;12.93;1.95;;;10.70;72.30;;;;;;4109302;28;20050;-83
2022/10/07 02:15:47;;;;;;;9.68;1.40;;;10.80;72.50;;;;;;4106218;28;20234;-83
2022/10/07 02:18:09;;;;;;;11.77;1.98;;;10.70;72.40;;;;;;4108634;28;20042;-83
2022/10/07 02:20:32;;;;;;;10.68;1.58;;;10.70;72.50;;;;;;4110975;28;20093;-82
2022/10/07 02:22:53;;;;;;;17.17;1.75;;;10.60;72.30;;;;;;4122376;28;20181;-83
2022/10/07 02:25:16;;;;;;;12.85;1.88;;;10.60;72.40;;;;;;4106735;28;20049;-84
2022/10/07 02:27:37;;;;;;;8.80;1.23;;;10.60;72.50;;;;;;4108873;28;20574;-83
2022/10/07 02:30:01;;;;;;;11.98;1.73;;;10.60;72.50;;;;;;4106705;28;20041;-83
2022/10/07 02:32:10;;;;;;;14.73;2.42;;;10.60;72.50;;;;;;4108789;28;20105;-84
2022/10/07 02:34:15;;;;;;;17.08;1.23;;;10.50;72.50;;;;;;4106826;28;20050;-83
2022/10/07 02:36:30;;;;;;;13.77;1.58;;;10.50;72.50;;;;;;4108111;28;20033;-83
2022/10/07 02:38:30;;;;;;;9.02;1.40;;;10.50;72.60;;;;;;4106147;28;20034;-83
2022/10/07 02:40:38;;;;;;;14.30;1.70;;;10.50;72.60;;;;;;4111502;28;20033;-83
2022/10/07 02:42:41;;;;;;;12.23;1.90;;;10.50;72.60;;;;;;4124847;28;20033;-83
2022/10/07 02:44:51;;;;;;;10.98;1.58;;;10.50;72.60;;;;;;4107291;28;20038;-83
2022/10/07 02:47:21;;;;;;;11.45;2.03;;;10.40;72.60;;;;;;4106664;28;20129;-83
2022/10/07 02:49:24;;;;;;;11.00;1.42;;;10.40;72.60;;;;;;4109871;28;20039;-82
2022/10/07 02:51:38;;;;;;;7.53;1.25;;;10.40;72.60;;;;;;4123469;28;20120;-83
2022/10/07 02:53:39;;;;;;;13.00;1.63;;;10.40;72.60;;;;;;4103989;28;20539;-83
2022/10/07 02:55:43;;;;;;;15.00;1.83;;;10.50;72.60;;;;;;4107777;28;20034;-83
2022/10/07 02:57:48;;;;;;;10.30;1.20;;;10.50;72.60;;;;;;4107798;28;20058;-83
2022/10/07 02:59:50;;;;;;;13.05;1.60;;;10.40;72.60;;;;;;4109229;28;20106;-83
2022/10/07 03:01:54;;;;;;;15.03;1.70;;;10.30;72.60;;;;;;4106664;28;20557;-84
2022/10/07 03:03:56;;;;;;;12.68;1.40;;;10.30;72.60;;;;;;4107455;28;20058;-83
2022/10/07 03:05:57;;;;;;;13.82;1.45;;;10.30;72.60;;;;;;4105902;28;20027;-83
2022/10/07 03:08:05;;;;;;;8.43;1.30;;;10.30;72.60;;;;;;4108648;28;20027;-83
2022/10/07 03:10:07;;;;;;;10.48;1.70;;;10.30;72.60;;;;;;4108360;28;20065;-84
2022/10/07 03:12:08;;;;;;;13.77;1.50;;;10.20;72.60;;;;;;4106041;28;20122;-84
2022/10/07 03:14:09;;;;;;;13.57;1.33;;;10.20;72.70;;;;;;4125858;28;20034;-84
2022/10/07 03:16:09;;;;;;;14.93;1.60;;;10.30;72.90;;;;;;4108303;28;20706;-83
2022/10/07 03:18:24;;;;;;;7.65;1.55;;;10.20;73.00;;;;;;4110281;28;20068;-84
2022/10/07 03:20:25;;;;;;;14.02;1.58;;;10.20;72.90;;;;;;4110151;28;20023;-84
2022/10/07 03:22:26;;;;;;;11.73;1.40;;;10.10;72.90;;;;;;4125245;28;20128;-83
2022/10/07 03:24:27;;;;;;;11.35;1.50;;;10.10;73.00;;;;;;4109845;28;20026;-83
2022/10/07 03:26:27;;;;;;;10.60;1.45;;;10.20;73.00;;;;;;4107953;28;20041;-83
2022/10/07 03:28:34;;;;;;;18.45;1.75;;;10.10;72.90;;;;;;4125530;28;20031;-83
2022/10/07 03:30:35;;;;;;;19.13;1.85;;;10.20;73.00;;;;;;4108210;28;20103;-85
2022/10/07 03:32:38;;;;;;;19.55;1.63;;;10.10;73.20;;;;;;4108068;28;20058;-84
2022/10/07 03:34:38;;;;;;;8.98;1.25;;;10.20;73.30;;;;;;4109984;28;20070;-84
2022/10/07 03:36:40;;;;;;;9.30;1.60;;;10.10;73.20;;;;;;4110356;28;20027;-84
2022/10/07 03:38:40;;;;;;;13.23;1.73;;;10.00;73.20;;;;;;4109480;28;20035;-84
2022/10/07 03:40:43;;;;;;;12.05;1.52;;;10.00;73.20;;;;;;4107592;28;20510;-84
2022/10/07 03:42:45;;;;;;;10.70;1.73;;;10.20;73.30;;;;;;4107793;28;20050;-83
2022/10/07 03:44:48;;;;;;;32.00;2.08;;;10.00;73.30;;;;;;4107985;28;20027;-84
2022/10/07 03:46:51;;;;;;;16.83;2.10;;;10.00;73.30;;;;;;4107937;28;20081;-84
2022/10/07 03:48:58;;;;;;;17.05;2.00;;;10.00;73.50;;;;;;4095172;28;20019;-84
2022/10/07 03:51:02;;;;;;;11.45;1.50;;;10.00;73.50;;;;;;4107967;28;20042;-84
2022/10/07 03:53:04;;;;;;;11.88;1.58;;;10.00;73.50;;;;;;4114382;28;21833;-84
2022/10/07 03:55:07;;;;;;;8.00;1.50;;;9.90;73.50;;;;;;4113214;28;20030;-84
2022/10/07 03:57:48;;;;;;;19.77;2.40;;;9.90;73.60;;;;;;4103521;28;20030;-84
2022/10/07 03:59:28;;;;;;;12.18;1.40;;;9.90;73.60;;;;;;4109224;28;20057;-83
2022/10/07 04:01:31;;;;;;;8.35;1.58;;;9.90;73.70;;;;;;4109272;28;20030;-83
2022/10/07 04:03:32;;;;;;;15.13;1.85;;;9.90;73.70;;;;;;4109713;28;20106;-83
2022/10/07 04:05:34;;;;;;;14.07;1.73;;;9.90;73.70;;;;;;4108959;28;20106;-83
2022/10/07 04:07:55;;;;;;;8.73;1.38;;;9.90;73.90;;;;;;4107817;28;20780;-84
2022/10/07 04:10:20;;;;;;;13.73;1.60;;;9.90;73.90;;;;;;4111758;28;20038;-84
2022/10/07 04:12:41;;;;;;;9.10;1.45;;;9.80;73.60;;;;;;4106613;28;20043;-84
2022/10/07 04:15:03;;;;;;;12.27;1.70;;;9.90;73.70;;;;;;4106679;28;20108;-84
2022/10/07 04:17:23;;;;;;;9.35;1.40;;;9.80;73.70;;;;;;4108875;28;20118;-84
2022/10/07 04:19:44;;;;;;;9.32;1.50;;;9.90;73.70;;;;;;4108968;28;20054;-84
2022/10/07 04:21:45;;;;;;;9.45;1.67;;;9.80;73.70;;;;;;4107045;28;20034;-84
2022/10/07 04:24:05;;;;;;;12.82;1.23;;;9.80;73.60;;;;;;4107247;28;20376;-83
2022/10/07 04:26:26;;;;;;;13.82;1.55;;;9.80;73.60;;;;;;4111959;28;20114;-83
2022/10/07 04:28:47;;;;;;;17.65;1.63;;;9.80;73.80;;;;;;4108913;28;20030;-84
2022/10/07 04:31:09;;;;;;;16.20;1.55;;;9.80;73.80;;;;;;4110769;28;20041;-84
2022/10/07 04:33:30;;;;;;;10.07;1.60;;;9.80;73.80;;;;;;4108396;28;20172;-84
2022/10/07 04:35:51;;;;;;;16.95;2.25;;;9.80;73.90;;;;;;4109739;28;20065;-84
2022/10/07 04:38:13;;;;;;;11.07;1.95;;;9.80;73.90;;;;;;4106038;28;20027;-83
2022/10/07 04:40:41;;;;;;;9.77;1.42;;;9.70;74.10;;;;;;4103479;28;20031;-85
2022/10/07 04:45:41;;;;;;;8.00;1.80;;;9.70;74.20;;;;;;4105540;28;20027;-84
2022/10/07 04:48:04;;;;;;;11.40;1.63;;;9.80;74.20;;;;;;4108531;28;20041;-84
2022/10/07 04:50:25;;;;;;;13.63;2.15;;;9.70;74.10;;;;;;4109607;28;20399;-83
2022/10/07 04:52:46;;;;;;;15.00;1.90;;;9.70;74.20;;;;;;4108981;28;20381;-84
2022/10/07 04:55:08;;;;;;;14.63;1.80;;;9.80;74.40;;;;;;4109726;28;20370;-84
2022/10/07 04:57:28;;;;;;;16.42;2.22;;;9.70;74.20;;;;;;4107034;28;20035;-83
2022/10/07 04:59:49;;;;;;;10.32;1.80;;;9.70;74.20;;;;;;4110259;28;20511;-84
2022/10/07 05:02:10;;;;;;;10.32;1.77;;;9.70;74.30;;;;;;4107329;28;20035;-84
2022/10/07 05:04:30;;;;;;;13.55;2.13;;;9.70;74.40;;;;;;4108953;28;20455;-83
2022/10/07 05:06:51;;;;;;;18.30;2.33;;;9.70;74.40;;;;;;4110826;28;20651;-83
2022/10/07 05:09:12;;;;;;;14.00;2.38;;;9.70;74.40;;;;;;4103494;28;20027;-83
2022/10/07 05:11:32;;;;;;;15.98;1.90;;;9.70;74.40;;;;;;4110121;28;20121;-83
2022/10/07 05:13:53;;;;;;;14.52;2.13;;;9.70;74.40;;;;;;4105777;28;20078;-83
2022/10/07 05:16:14;;;;;;;12.20;1.52;;;9.80;74.60;;;;;;4109471;28;20042;-83
2022/10/07 05:18:36;;;;;;;16.73;2.28;;;9.80;74.40;;;;;;4111538;28;20155;-82
2022/10/07 05:20:56;;;;;;;14.10;1.67;;;9.60;74.30;;;;;;4109824;28;20446;-82
2022/10/07 05:23:19;;;;;;;12.98;2.22;;;9.70;74.40;;;;;;4108416;28;20467;-83
2022/10/07 05:25:42;;;;;;;12.60;2.08;;;9.70;75.10;;;;;;4110892;28;20403;-83
2022/10/07 05:28:03;;;;;;;11.73;1.80;;;9.60;74.30;;;;;;4110763;28;20737;-82
2022/10/07 05:30:23;;;;;;;12.48;2.17;;;9.60;74.30;;;;;;4109727;28;21078;-82
2022/10/07 05:32:44;;;;;;;17.08;2.03;;;9.60;74.30;;;;;;4107791;28;20508;-83
2022/10/07 05:35:05;;;;;;;12.13;1.80;;;9.60;74.30;;;;;;4110594;28;20456;-83
2022/10/07 05:37:26;;;;;;;12.75;2.47;;;9.60;74.30;;;;;;4107328;28;20404;-82
2022/10/07 05:39:47;;;;;;;12.57;1.80;;;9.60;74.30;;;;;;4110233;28;20384;-83
2022/10/07 05:42:08;;;;;;;16.60;2.08;;;9.60;74.90;;;;;;4109508;28;20443;-83
2022/10/07 05:44:30;;;;;;;14.90;1.92;;;9.60;74.20;;;;;;4111431;28;20097;-83
2022/10/07 05:46:51;;;;;;;10.43;1.83;;;9.60;74.90;;;;;;4118755;28;20399;-82
2022/10/07 05:49:12;;;;;;;17.08;2.22;;;9.60;74.10;;;;;;4112471;28;20411;-83
2022/10/07 05:51:32;;;;;;;10.05;2.38;;;9.60;74.10;;;;;;4111358;28;20587;-83
2022/10/07 05:53:54;;;;;;;11.63;2.05;;;9.60;74.10;;;;;;4110365;28;20092;-83
2022/10/07 05:56:20;;;;;;;10.88;1.80;;;9.60;74.00;;;;;;4111954;28;20118;-83
2022/10/07 05:58:41;;;;;;;10.88;1.80;;;9.60;74.00;;;;;;4108911;28;21244;-83
2022/10/07 06:01:05;;;;;;;14.73;2.00;;;9.60;73.90;;;;;;4110460;28;20455;-84
2022/10/07 06:03:26;;;;;;;9.80;2.35;;;9.60;73.90;;;;;;4111647;28;20558;-82
2022/10/07 06:05:49;;;;;;;13.45;2.00;;;9.60;74.00;;;;;;4109255;28;20054;-83
2022/10/07 06:08:10;;;;;;;17.30;2.00;;;9.50;73.90;;;;;;4108526;28;20538;-83
2022/10/07 06:13:16;;;;;;;14.60;2.30;;;9.50;73.80;;;;;;4090920;28;20066;-83
2022/10/07 06:15:37;;;;;;;12.60;2.50;;;9.50;73.80;;;;;;4109574;28;20566;-82
2022/10/07 06:17:57;;;;;;;22.80;2.42;;;9.50;73.90;;;;;;4120035;28;20498;-83
2022/10/07 06:20:18;;;;;;;9.80;2.10;;;9.50;73.80;;;;;;4107479;28;20035;-81
2022/10/07 06:22:38;;;;;;;11.35;2.00;;;9.60;73.90;;;;;;4102476;28;20520;-83
2022/10/07 06:25:00;;;;;;;10.73;2.05;;;9.60;73.90;;;;;;4108831;28;20110;-83
2022/10/07 06:27:20;;;;;;;11.27;2.25;;;9.60;74.00;;;;;;4109346;28;20045;-84
2022/10/07 06:29:39;;;;;;;12.18;2.03;;;9.60;74.10;;;;;;4107348;28;20491;-84
2022/10/07 06:31:59;;;;;;;15.45;2.33;;;9.60;74.00;;;;;;4118584;28;20045;-83
2022/10/07 06:34:18;;;;;;;9.70;1.80;;;9.60;74.10;;;;;;4110721;28;20053;-83
2022/10/07 06:36:37;;;;;;;13.80;2.30;;;9.60;74.10;;;;;;4108317;28;20094;-84
2022/10/07 06:38:56;;;;;;;19.20;2.15;;;9.60;74.20;;;;;;4110252;28;20395;-83
2022/10/07 06:41:16;;;;;;;12.65;2.05;;;9.60;74.90;;;;;;4107946;28;20049;-84
2022/10/07 06:43:35;;;;;;;11.02;2.80;;;9.70;74.20;;;;;;4108374;28;20094;-84
2022/10/07 06:46:00;;;;;;;13.65;2.50;;;9.70;74.10;;;;;;4106184;28;20045;-83
2022/10/07 06:48:19;;;;;;;13.85;2.47;;;9.70;74.10;;;;;;4107431;28;20058;-84
2022/10/07 06:50:38;;;;;;;12.35;2.55;;;9.90;74.40;;;;;;4109158;28;20042;-83
2022/10/07 06:52:57;;;;;;;13.50;2.05;;;9.80;74.20;;;;;;4107559;28;20085;-83
2022/10/07 06:55:16;;;;;;;14.90;2.72;;;9.80;74.20;;;;;;4100908;28;20046;-84
2022/10/07 06:57:36;;;;;;;10.23;2.22;;;9.80;74.20;;;;;;4108834;28;20423;-83
2022/10/07 06:59:55;;;;;;;13.40;2.28;;;9.90;74.20;;;;;;4109734;28;20109;-83
2022/10/07 07:02:14;;;;;;;19.10;2.80;;;9.90;74.80;;;;;;4104589;28;20639;-83
2022/10/07 07:04:34;;;;;;;13.52;2.65;;;9.90;74.80;;;;;;4108010;28;20037;-84
2022/10/07 07:06:53;;;;;;;15.80;2.40;;;9.90;74.00;;;;;;4102535;28;20082;-83
2022/10/07 07:09:12;;;;;;;15.57;2.60;;;10.00;74.00;;;;;;4109607;28;20045;-84
2022/10/07 07:11:39;;;;;;;17.25;2.67;;;10.00;73.90;;;;;;4107345;28;20050;-83
2022/10/07 07:13:58;;;;;;;15.23;2.33;;;10.00;73.80;;;;;;4108638;28;20046;-84
2022/10/07 07:16:18;;;;;;;17.73;2.88;;;10.10;73.80;;;;;;4109355;28;20123;-83
2022/10/07 07:18:37;;;;;;;16.27;2.72;;;10.10;73.80;;;;;;4110223;28;20518;-83
2022/10/07 07:21:02;;;;;;;12.75;2.83;;;10.10;73.60;;;;;;4108147;28;20130;-83
2022/10/07 07:23:23;;;;;;;16.40;2.28;;;10.20;73.60;;;;;;4111746;28;20065;-83
2022/10/07 07:25:44;;;;;;;17.00;3.28;;;10.20;73.50;;;;;;4108949;28;20054;-83
2022/10/07 07:28:05;;;;;;;13.93;2.50;;;10.30;73.50;;;;;;4106095;28;20673;-84
2022/10/07 07:30:24;;;;;;;13.43;2.90;;;10.30;73.40;;;;;;4119420;28;20045;-84
2022/10/07 07:32:44;;;;;;;17.38;2.85;;;10.30;73.40;;;;;;4109811;28;20127;-84
2022/10/07 07:35:05;;;;;;;13.18;2.55;;;10.40;73.50;;;;;;4108860;28;20042;-83
2022/10/07 07:37:25;;;;;;;11.75;2.17;;;10.40;73.40;;;;;;4105122;28;20038;-83
2022/10/07 07:39:44;;;;;;;14.00;2.40;;;10.50;74.10;;;;;;4116336;28;20038;-83
2022/10/07 07:42:03;;;;;;;10.55;2.50;;;10.50;73.30;;;;;;4108666;28;20037;-83
2022/10/07 07:44:23;;;;;;;11.55;2.72;;;10.50;73.20;;;;;;4109154;28;20061;-84
2022/10/07 07:46:47;;;;;;;15.15;2.75;;;10.60;73.20;;;;;;4105503;28;20102;-83
2022/10/07 07:49:09;;;;;;;15.13;3.00;;;10.60;73.00;;;;;;4106464;28;20078;-82
2022/10/07 07:51:28;;;;;;;10.65;2.40;;;10.70;73.00;;;;;;4109114;28;20085;-83
2022/10/07 07:53:51;;;;;;;17.92;3.10;;;10.70;73.00;;;;;;4105322;28;20085;-84
2022/10/07 07:56:11;;;;;;;15.10;2.90;;;10.70;73.00;;;;;;4109734;28;20079;-83
2022/10/07 07:58:30;;;;;;;22.70;2.90;;;10.80;73.00;;;;;;4107563;28;20042;-84
2022/10/07 08:01:07;;;;;;;9.85;2.88;;;10.80;73.00;;;;;;4105929;28;20138;-83
2022/10/07 08:03:26;;;;;;;20.25;3.10;;;10.90;73.00;;;;;;4108670;28;20500;-84
2022/10/07 08:05:47;;;;;;;15.30;3.00;;;10.90;73.00;;;;;;4104365;28;20041;-84
2022/10/07 08:08:09;;;;;;;18.45;3.25;;;11.00;73.00;;;;;;4108814;28;20702;-83
2022/10/07 08:10:29;;;;;;;24.52;3.95;;;11.00;72.90;;;;;;4107419;28;20061;-83
2022/10/07 08:12:48;;;;;;;18.17;3.40;;;11.10;72.90;;;;;;4109217;28;20052;-84
2022/10/07 08:15:09;;;;;;;18.45;3.45;;;11.20;73.00;;;;;;4110887;28;20109;-84
2022/10/07 08:17:28;;;;;;;17.33;3.28;;;11.20;72.90;;;;;;4123757;28;20117;-83
2022/10/07 08:19:47;;;;;;;8.38;2.42;;;11.20;72.80;;;;;;4111591;28;20042;-83
2022/10/07 08:22:07;;;;;;;15.57;2.97;;;11.30;72.90;;;;;;4105093;28;20462;-84
2022/10/07 08:24:27;;;;;;;11.77;2.50;;;11.30;72.90;;;;;;4107699;28;20106;-83
2022/10/07 08:26:46;;;;;;;13.80;2.47;;;11.40;73.00;;;;;;4104392;28;20049;-84
2022/10/07 08:29:06;;;;;;;29.33;3.72;;;11.50;73.00;;;;;;4108868;28;20094;-83
2022/10/07 08:31:26;;;;;;;16.63;2.65;;;11.50;73.00;;;;;;4102097;28;20074;-83
2022/10/07 08:33:47;;;;;;;15.88;2.70;;;11.60;72.90;;;;;;4106203;28;20646;-84
2022/10/07 08:36:12;;;;;;;17.25;3.13;;;11.70;72.80;;;;;;4107126;28;20046;-83
2022/10/07 08:38:37;;;;;;;17.90;2.55;;;11.70;72.80;;;;;;4122824;28;20033;-84
2022/10/07 08:41:08;;;;;;;10.38;2.67;;;11.80;72.80;;;;;;4107238;28;20871;-83
2022/10/07 08:43:28;;;;;;;15.50;2.60;;;11.90;72.60;;;;;;4107175;28;20534;-84
2022/10/07 08:45:47;;;;;;;18.00;3.58;;;12.00;72.50;;;;;;4104628;28;20093;-84
2022/10/07 08:48:13;;;;;;;11.23;2.40;;;12.00;72.40;;;;;;4099604;28;20071;-84
2022/10/07 08:50:48;;;;;;;16.10;2.90;;;12.20;72.50;;;;;;4105483;28;20042;-84
2022/10/07 08:53:16;;;;;;;18.98;2.75;;;12.10;72.10;;;;;;4106479;28;20077;-84
2022/10/07 08:55:48;;;;;;;21.25;3.20;;;12.20;72.10;;;;;;4104435;28;20089;-84
2022/10/07 08:58:34;;;;;;;18.38;3.15;;;12.30;72.10;;;;;;4101930;28;20034;-83
2022/10/07 09:01:08;;;;;;;15.15;2.60;;;12.30;72.10;;;;;;4103779;28;20150;-84
2022/10/07 09:03:46;;;;;;;15.00;2.45;;;12.40;72.30;;;;;;4105333;28;20126;-84
2022/10/07 09:06:12;;;;;;;15.55;2.72;;;12.40;72.30;;;;;;4106276;28;20227;-83
2022/10/07 09:08:39;;;;;;;16.90;3.80;;;12.60;72.30;;;;;;4107797;28;20133;-83
2022/10/07 09:11:14;;;;;;;16.52;3.65;;;12.70;72.00;;;;;;4105642;28;20053;-84
2022/10/07 09:13:39;;;;;;;18.85;2.95;;;12.70;71.80;;;;;;4104766;28;20042;-84
2022/10/07 09:16:09;;;;;;;24.98;3.33;;;12.80;71.60;;;;;;4119482;28;20053;-85
2022/10/07 09:18:49;;;;;;;17.63;3.15;;;12.80;71.30;;;;;;4101250;28;20048;-85
2022/10/07 09:21:17;;;;;;;19.73;2.80;;;12.90;71.40;;;;;;4103003;28;20041;-84
2022/10/07 09:23:37;;;;;;;20.35;3.28;;;13.00;71.30;;;;;;4102677;28;20130;-84
2022/10/07 09:25:57;;;;;;;17.23;3.25;;;13.00;71.10;;;;;;4106798;28;20049;-84
2022/10/07 09:28:19;;;;;;;10.57;2.30;;;13.10;71.00;;;;;;4108016;28;20073;-83
2022/10/07 09:30:41;;;;;;;17.40;3.47;;;13.10;71.00;;;;;;4105959;28;20102;-84
2022/10/07 09:33:01;;;;;;;26.73;4.47;;;13.20;71.10;;;;;;4099631;28;20045;-84
2022/10/07 09:35:24;;;;;;;17.83;3.15;;;13.20;71.00;;;;;;4105347;28;20103;-84
2022/10/07 09:37:54;;;;;;;16.45;3.15;;;13.20;70.70;;;;;;4107747;28;20546;-84
2022/10/07 09:40:35;;;;;;;19.13;3.00;;;13.30;70.80;;;;;;4115639;28;20086;-84
2022/10/07 09:42:55;;;;;;;18.75;2.70;;;13.30;70.80;;;;;;4099643;28;20037;-84
2022/10/07 09:45:22;;;;;;;17.55;3.28;;;13.40;70.90;;;;;;4106440;28;20178;-84
2022/10/07 09:47:41;;;;;;;20.70;3.60;;;13.40;70.80;;;;;;4104166;28;20215;-84
2022/10/07 09:50:00;;;;;;;21.63;3.17;;;13.50;70.80;;;;;;4103154;28;20073;-84
2022/10/07 09:52:27;;;;;;;19.67;2.95;;;13.50;70.80;;;;;;4098954;28;20126;-84
2022/10/07 09:54:49;;;;;;;19.88;3.42;;;13.50;70.90;;;;;;4102778;28;20042;-84
2022/10/07 09:57:22;;;;;;;21.33;3.72;;;13.60;71.00;;;;;;4120808;28;20096;-83
2022/10/07 09:59:41;;;;;;;17.80;2.78;;;13.70;71.10;;;;;;4103162;28;20059;-84
2022/10/07 10:02:12;;;;;;;22.10;3.70;;;13.70;71.10;;;;;;4099570;28;20129;-84
2022/10/07 10:04:35;;;;;;;24.33;3.35;;;13.90;71.10;;;;;;4106473;28;20125;-83
2022/10/07 10:07:02;;;;;;;17.10;2.90;;;13.90;70.90;;;;;;4116607;28;20137;-84
2022/10/07 10:09:24;;;;;;;22.40;3.00;;;13.90;70.90;;;;;;4099267;28;20044;-83
2022/10/07 10:11:44;;;;;;;17.38;2.95;;;13.90;71.60;;;;;;4097003;28;20073;-84
2022/10/07 10:14:50;;;;;;;20.65;2.67;;;14.00;70.90;;;;;;4105208;28;20045;-83
2022/10/07 10:17:38;;;;;;;;;;;14.00;70.60;;;;;;4119775;28;20623;-83
2022/10/07 10:20:27;;;;;;;19.50;2.67;;;14.10;70.40;;;;;;4078132;29;19980;-84
2022/10/07 10:22:46;;;;;;;20.48;2.33;;;14.20;70.40;;;;;;4091392;28;20039;-85
2022/10/07 10:28:14;;;;;;;18.02;2.60;;;14.30;70.50;;;;;;4089326;28;20098;-83
2022/10/07 10:30:40;;;;;;;23.27;3.30;;;14.30;70.50;;;;;;4076476;28;20078;-83
2022/10/07 10:33:25;;;;;;;20.42;2.55;;;14.40;70.40;;;;;;4087379;28;20637;-83
2022/10/07 10:36:00;;;;;;;30.52;3.17;;;14.50;70.10;;;;;;4093238;28;20090;-83
2022/10/07 10:38:37;;;;;;;17.77;2.45;;;14.50;70.10;;;;;;4092290;28;20094;-83
2022/10/07 10:41:29;;;;;;;18.17;2.47;;;14.50;70.10;;;;;;4087776;28;20033;-83
2022/10/07 10:44:36;;;;;;;23.55;3.28;;;14.50;69.90;;;;;;4088291;28;20119;-83
2022/10/07 10:47:11;;;;;;;18.98;3.22;;;14.60;69.90;;;;;;4074950;29;20034;-82
2022/10/07 10:49:49;;;;;;;19.38;2.78;;;14.60;69.80;;;;;;4089073;28;20047;-83
2022/10/07 10:52:33;;;;;;;19.08;2.70;;;14.70;69.60;;;;;;4082661;28;20041;-84
2022/10/07 10:55:20;;;;;;;15.50;2.15;;;14.80;69.60;;;;;;4071576;28;20066;-82
2022/10/07 10:57:45;;;;;;;12.98;2.65;;;14.80;69.90;;;;;;4102474;28;20435;-82
2022/10/07 11:00:12;;;;;;;20.25;2.75;;;14.90;69.90;;;;;;4102879;28;20046;-83
2022/10/07 11:02:38;;;;;;;23.42;2.47;;;15.00;69.70;;;;;;4101592;28;20054;-83
2022/10/07 11:05:02;;;;;;;14.85;2.30;;;15.00;69.00;;;;;;4106862;28;20057;-83
2022/10/07 11:07:48;;;;;;;17.13;2.78;;;15.10;68.90;;;;;;4101208;28;20046;-83
2022/10/07 11:10:46;;;;;;;15.93;2.33;;;15.20;68.30;;;;;;4116119;28;20029;-83
2022/10/07 11:13:34;;;;;;;15.40;2.60;;;15.20;67.50;;;;;;4110019;28;20041;-84
2022/10/07 11:16:20;;;;;;;13.43;2.10;;;15.30;67.80;;;;;;4108655;28;20033;-84
2022/10/07 11:19:00;;;;;;;15.80;2.45;;;15.40;68.20;;;;;;4109824;28;20129;-83
2022/10/07 11:21:24;;;;;;;16.23;2.83;;;15.50;67.50;;;;;;4110033;28;20042;-85
2022/10/07 11:23:56;;;;;;;17.13;2.30;;;15.50;67.50;;;;;;4101989;28;20037;-84
2022/10/07 11:26:30;;;;;;;9.77;1.92;;;15.50;66.90;;;;;;4104200;28;20545;-84
2022/10/07 11:28:50;;;;;;;17.45;2.15;;;15.50;66.30;;;;;;4102195;28;20587;-85
2022/10/07 11:31:25;;;;;;;19.27;2.28;;;15.60;66.50;;;;;;4100169;28;20129;-84
2022/10/07 11:34:10;;;;;;;17.85;2.85;;;15.60;66.20;;;;;;4105108;28;20062;-83
2022/10/07 11:36:43;;;;;;;24.27;3.22;;;15.70;65.90;;;;;;4106328;28;20038;-83
2022/10/07 11:39:03;;;;;;;20.17;2.90;;;15.70;65.50;;;;;;4097159;28;20038;-84
2022/10/07 11:41:31;;;;;;;16.17;3.00;;;15.70;65.90;;;;;;4099650;28;20069;-84
2022/10/07 11:43:57;;;;;;;19.35;2.80;;;15.80;65.90;;;;;;4114075;28;20045;-85
2022/10/07 11:46:26;;;;;;;15.95;2.78;;;15.80;65.50;;;;;;4099718;28;20106;-84
2022/10/07 11:48:52;;;;;;;16.25;2.13;;;15.80;65.30;;;;;;4105364;28;20055;-83
2022/10/07 11:51:26;;;;;;;19.80;2.83;;;15.80;65.50;;;;;;4097444;28;20050;-85
2022/10/07 11:53:45;;;;;;;16.52;2.47;;;15.90;65.70;;;;;;4099298;28;20053;-86
2022/10/07 11:56:15;;;;;;;10.10;2.05;;;15.90;65.30;;;;;;4107070;28;20101;-86
2022/10/07 11:58:37;;;;;;;19.67;2.60;;;15.90;64.50;;;;;;4106162;28;20636;-85
2022/10/07 12:01:25;;;;;;;20.15;2.53;;;15.90;64.40;;;;;;4104918;28;20611;-85
2022/10/07 12:03:46;;;;;;;15.50;2.03;;;16.00;63.90;;;;;;4105861;28;20042;-86
2022/10/07 12:06:12;;;;;;;13.55;2.20;;;16.00;64.20;;;;;;4104418;28;20179;-86
2022/10/07 12:08:40;;;;;;;19.02;2.70;;;16.00;64.00;;;;;;4118288;28;20100;-85
2022/10/07 12:11:13;;;;;;;22.67;2.63;;;16.00;63.30;;;;;;4102647;28;20077;-86
2022/10/07 12:13:40;;;;;;;16.17;2.65;;;16.00;63.20;;;;;;4119150;28;20156;-86
2022/10/07 12:16:22;;;;;;;20.92;2.58;;;16.10;63.70;;;;;;4104479;28;20122;-85
2022/10/07 12:19:11;;;;;;;15.13;2.15;;;16.10;63.20;;;;;;4106071;28;20046;-86
2022/10/07 12:21:59;;;;;;;13.82;2.83;;;16.10;62.90;;;;;;4096918;28;20045;-85